createdAt,value
2024-02-16T00:03:36.876Z,27.50
2024-02-16T00:08:39.547Z,27.50
2024-02-16T00:13:39.849Z,26.80
2024-02-16T00:16:10.859Z,29.20
2024-02-16T00:21:11.511Z,26.30
2024-02-16T00:26:11.849Z,23.30
2024-02-16T00:28:43.387Z,24.70
2024-02-16T00:33:43.741Z,27.20
2024-02-16T00:36:14.933Z,21.60
2024-02-16T00:41:23.011Z,26.90
2024-02-16T00:43:53.954Z,26.70
2024-02-16T00:48:54.750Z,29.00
2024-02-16T00:51:25.893Z,24.00
2024-02-16T00:53:57.039Z,27.10
2024-02-16T00:58:57.291Z,27.00
2024-02-16T01:03:57.669Z,26.00
2024-02-16T01:06:28.764Z,32.80
2024-02-16T01:08:59.751Z,39.10
2024-02-16T01:14:00.049Z,30.20
2024-02-16T01:16:31.104Z,28.90
2024-02-16T01:21:31.524Z,30.10
2024-02-16T01:26:32.154Z,27.50
2024-02-16T01:29:03.257Z,24.70
2024-02-16T01:34:03.774Z,25.90
2024-02-16T01:36:34.902Z,25.60
2024-02-16T01:39:05.985Z,24.60
2024-02-16T01:44:06.816Z,28.50
2024-02-16T01:46:38.159Z,23.90
2024-02-16T01:49:09.595Z,26.00
2024-02-16T01:51:41.000Z,28.00
2024-02-16T01:54:12.121Z,25.90
2024-02-16T01:56:43.390Z,26.00
2024-02-16T01:59:14.638Z,24.30
2024-02-16T02:01:45.861Z,24.90
2024-02-16T02:04:17.031Z,23.50
2024-02-16T02:06:48.260Z,23.50
2024-02-16T02:09:19.277Z,23.20
2024-02-16T02:11:50.344Z,23.80
2024-02-16T02:14:24.397Z,23.30
2024-02-16T02:16:59.054Z,23.30
2024-02-16T02:19:31.801Z,23.90
2024-02-16T02:22:02.774Z,25.20
2024-02-16T02:24:33.753Z,23.60
2024-02-16T02:29:34.369Z,24.90
2024-02-16T02:32:07.588Z,25.30
2024-02-16T02:34:38.803Z,26.40
2024-02-16T02:37:09.814Z,21.50
2024-02-16T02:42:10.378Z,23.30
2024-02-16T02:44:41.803Z,27.30
2024-02-16T02:47:12.802Z,23.30
2024-02-16T02:52:13.386Z,25.60
2024-02-16T02:54:44.378Z,24.70
2024-02-16T02:59:44.782Z,25.40
2024-02-16T03:02:15.579Z,23.30
2024-02-16T03:04:46.623Z,25.50
2024-02-16T03:09:46.658Z,23.50
2024-02-16T03:12:17.423Z,23.10
2024-02-16T03:14:48.785Z,23.60
2024-02-16T03:17:19.794Z,22.30
2024-02-16T03:22:20.164Z,23.20
2024-02-16T03:27:20.177Z,22.20
2024-02-16T03:32:20.400Z,20.70
2024-02-16T03:34:51.578Z,21.30
2024-02-16T03:37:22.421Z,23.90
2024-02-16T03:39:53.231Z,24.00
2024-02-16T03:42:24.246Z,24.60
2024-02-16T03:47:24.398Z,24.80
2024-02-16T03:49:55.416Z,24.30
2024-02-16T03:52:26.443Z,24.50
2024-02-16T03:54:57.220Z,26.40
2024-02-16T03:57:28.405Z,24.40
2024-02-16T03:59:59.274Z,26.00
2024-02-16T04:02:30.211Z,21.80
2024-02-16T04:07:30.275Z,22.70
2024-02-16T04:10:01.338Z,24.30
2024-02-16T04:15:01.571Z,22.40
2024-02-16T04:17:32.335Z,26.80
2024-02-16T04:20:03.582Z,25.90
2024-02-16T04:22:34.470Z,27.00
2024-02-16T04:25:06.137Z,27.60
2024-02-16T04:27:37.022Z,26.90
2024-02-16T04:32:38.136Z,26.80
2024-02-16T04:35:11.731Z,26.80
2024-02-16T04:37:42.741Z,25.90
2024-02-16T04:40:15.842Z,28.30
2024-02-16T04:42:47.426Z,26.50
2024-02-16T04:47:47.874Z,26.10
2024-02-16T04:50:18.851Z,25.00
2024-02-16T04:52:49.696Z,23.70
2024-02-16T04:55:27.493Z,25.50
2024-02-16T04:57:58.769Z,26.70
2024-02-16T05:00:29.971Z,23.90
2024-02-16T05:03:01.034Z,25.50
2024-02-16T05:05:32.300Z,24.70
2024-02-16T05:08:03.938Z,24.80
2024-02-16T05:10:35.187Z,27.10
2024-02-16T05:13:06.318Z,28.00
2024-02-16T05:18:08.743Z,25.30
2024-02-16T05:20:40.961Z,28.50
2024-02-16T05:23:11.711Z,25.80
2024-02-16T05:25:42.638Z,30.10
2024-02-16T05:28:13.516Z,26.30
2024-02-16T05:30:44.766Z,30.40
2024-02-16T05:33:15.861Z,28.80
2024-02-16T05:35:46.941Z,28.50
2024-02-16T06:12:10.916Z,35.70
2024-02-16T06:14:41.986Z,39.80
2024-02-16T06:19:45.929Z,40.30
2024-02-16T06:22:16.945Z,42.30
2024-02-16T06:24:48.057Z,41.40
2024-02-16T06:27:19.031Z,41.80
2024-02-16T06:32:19.233Z,46.10
2024-02-16T06:34:50.107Z,52.30
2024-02-16T06:37:21.092Z,49.00
2024-02-16T06:42:21.583Z,45.40
2024-02-16T06:47:21.741Z,43.20
2024-02-16T06:49:52.838Z,41.50
2024-02-16T06:52:23.835Z,40.20
2024-02-16T06:54:58.409Z,38.70
2024-02-16T06:57:32.678Z,41.50
2024-02-16T07:02:33.083Z,34.20
2024-02-16T07:05:04.349Z,32.40
2024-02-16T07:07:59.428Z,35.30
2024-02-16T07:10:42.452Z,29.80
2024-02-16T07:13:16.184Z,30.90
2024-02-16T07:15:47.120Z,30.50
2024-02-16T07:18:18.294Z,35.80
2024-02-16T07:20:51.395Z,30.80
2024-02-16T07:23:22.450Z,28.70
2024-02-16T07:25:53.617Z,31.50
2024-02-16T07:28:24.389Z,32.40
2024-02-16T07:30:55.608Z,29.20
2024-02-16T07:33:27.097Z,29.70
2024-02-16T07:35:58.088Z,29.30
2024-02-16T07:38:29.295Z,29.50
2024-02-16T07:41:00.781Z,32.00
2024-02-16T07:46:00.778Z,29.90
2024-02-16T07:48:31.978Z,30.60
2024-02-16T07:51:03.055Z,29.50
2024-02-16T07:56:14.537Z,27.00
2024-02-16T07:58:47.631Z,27.60
2024-02-16T08:01:18.783Z,27.90
2024-02-16T08:03:49.678Z,28.90
2024-02-16T08:06:20.744Z,26.70
2024-02-16T08:08:51.618Z,28.90
2024-02-16T08:11:23.353Z,27.50
2024-02-16T08:13:54.314Z,29.00
2024-02-16T08:16:25.731Z,27.70
2024-02-16T08:18:59.783Z,26.90
2024-02-16T08:21:30.769Z,29.00
2024-02-16T08:24:02.618Z,27.70
2024-02-16T08:26:33.503Z,28.70
2024-02-16T08:29:04.248Z,29.30
2024-02-16T08:31:35.275Z,28.40
2024-02-16T08:36:38.590Z,24.00
2024-02-16T08:41:38.693Z,31.40
2024-02-16T08:44:09.984Z,30.00
2024-02-16T08:46:41.012Z,29.80
2024-02-16T08:51:41.269Z,28.90
2024-02-16T08:54:12.304Z,28.00
2024-02-16T08:56:49.387Z,29.60
2024-02-16T08:59:20.436Z,24.40
2024-02-16T09:01:53.789Z,24.10
2024-02-16T09:06:54.022Z,23.60
2024-02-16T09:09:24.939Z,25.80
2024-02-16T09:11:56.656Z,21.70
2024-02-16T09:14:27.530Z,24.50
2024-02-16T09:16:58.408Z,25.80
2024-02-16T09:21:59.181Z,24.80
2024-02-16T09:24:30.322Z,23.30
2024-02-16T09:29:31.545Z,20.90
2024-02-16T09:32:02.611Z,21.40
2024-02-16T09:34:33.961Z,24.30
2024-02-16T09:37:05.327Z,24.10
2024-02-16T09:39:36.313Z,19.40
2024-02-16T09:42:07.618Z,19.50
2024-02-16T09:44:40.359Z,21.20
2024-02-16T09:47:12.498Z,20.90
2024-02-16T09:49:43.717Z,22.40
2024-02-16T09:52:14.969Z,22.90
2024-02-16T09:54:45.920Z,21.20
2024-02-16T09:57:19.561Z,21.30
2024-02-16T09:59:50.808Z,21.10
2024-02-16T10:02:22.038Z,22.70
2024-02-16T10:04:53.197Z,25.00
2024-02-16T10:07:33.656Z,25.60
2024-02-16T10:10:04.813Z,23.10
2024-02-16T10:12:35.584Z,23.50
2024-02-16T10:15:09.716Z,20.90
2024-02-16T10:17:40.754Z,22.40
2024-02-16T10:22:48.363Z,18.40
2024-02-16T10:25:19.957Z,20.00
2024-02-16T10:30:23.087Z,19.00
2024-02-16T10:32:54.568Z,20.70
2024-02-16T10:35:29.402Z,21.30
2024-02-16T10:38:01.932Z,24.40
2024-02-16T10:40:33.899Z,19.50
2024-02-16T10:43:06.872Z,19.30
2024-02-16T10:45:45.175Z,28.60
2024-02-16T10:48:16.933Z,22.90
2024-02-16T10:50:48.158Z,19.30
2024-02-16T10:53:24.494Z,27.60
2024-02-16T10:55:57.980Z,23.00
2024-02-16T10:58:30.438Z,20.10
2024-02-16T11:01:10.929Z,21.00
2024-02-16T11:03:42.461Z,18.50
2024-02-16T11:06:19.322Z,21.90
2024-02-16T11:08:51.885Z,25.30
2024-02-16T11:11:26.932Z,27.40
2024-02-16T11:13:58.581Z,20.60
2024-02-16T11:16:31.693Z,20.90
2024-02-16T11:19:03.231Z,23.30
2024-02-16T11:21:34.200Z,17.60
2024-02-16T11:26:47.295Z,17.50
2024-02-16T11:29:19.832Z,18.90
2024-02-16T11:31:53.854Z,19.90
2024-02-16T11:34:27.926Z,18.10
2024-02-16T11:36:59.493Z,22.60
2024-02-16T11:39:31.189Z,18.00
2024-02-16T11:42:07.006Z,19.70
2024-02-16T11:44:38.792Z,16.20
2024-02-16T11:47:10.302Z,20.40
2024-02-16T11:49:42.477Z,20.20
2024-02-16T11:52:13.583Z,19.70
2024-02-16T11:54:47.880Z,17.90
2024-02-16T11:57:19.071Z,18.20
2024-02-16T11:59:50.182Z,16.60
2024-02-16T12:02:21.278Z,18.70
2024-02-16T12:05:03.454Z,24.00
2024-02-16T12:07:37.741Z,20.40
2024-02-16T12:10:12.117Z,15.30
2024-02-16T12:12:43.010Z,14.00
2024-02-16T12:17:43.705Z,11.90
2024-02-16T12:22:47.701Z,18.70
2024-02-16T12:25:20.260Z,16.30
2024-02-16T12:27:51.208Z,15.90
2024-02-16T12:30:22.294Z,14.90
2024-02-16T12:32:53.482Z,19.60
2024-02-16T12:35:24.590Z,17.30
2024-02-16T12:37:55.582Z,20.90
2024-02-16T12:40:26.590Z,18.80
2024-02-16T12:42:57.562Z,18.40
2024-02-16T12:45:28.943Z,20.70
2024-02-16T12:48:00.243Z,19.10
2024-02-16T12:50:31.709Z,16.30
2024-02-16T12:53:04.687Z,18.90
2024-02-16T12:55:42.359Z,21.90
2024-02-16T12:58:13.277Z,18.80
2024-02-16T13:03:13.633Z,17.50
2024-02-16T13:05:44.868Z,15.70
2024-02-16T13:08:15.691Z,19.60
2024-02-16T13:10:47.032Z,17.70
2024-02-16T13:13:17.908Z,15.40
2024-02-16T13:15:48.955Z,14.90
2024-02-16T13:18:20.091Z,14.70
2024-02-16T13:20:51.016Z,13.20
2024-02-16T13:26:08.243Z,13.50
2024-02-16T13:31:08.859Z,18.60
2024-02-16T13:33:40.356Z,15.40
2024-02-16T13:36:11.404Z,17.90
2024-02-16T13:38:42.532Z,14.80
2024-02-16T14:23:22.644Z,19.60
2024-02-16T14:25:53.625Z,15.70
2024-02-16T14:30:54.013Z,19.80
2024-02-16T14:33:32.665Z,20.20
2024-02-16T14:36:08.077Z,15.90
2024-02-16T14:38:42.397Z,18.70
2024-02-16T14:41:14.131Z,18.40
2024-02-16T14:43:45.041Z,19.80
2024-02-16T14:48:45.181Z,18.80
2024-02-16T14:53:45.490Z,21.50
2024-02-16T14:56:23.273Z,27.70
2024-02-16T14:58:54.232Z,18.00
2024-02-16T15:03:54.797Z,22.80
2024-02-16T15:08:55.490Z,22.60
2024-02-16T15:11:26.540Z,18.90
2024-02-16T15:13:57.365Z,32.30
2024-02-16T15:16:28.260Z,23.50
2024-02-16T15:21:28.909Z,28.90
2024-02-16T15:24:00.023Z,21.80
2024-02-16T15:26:31.539Z,27.50
2024-02-16T15:31:31.840Z,16.50
2024-02-16T15:34:02.880Z,26.70
2024-02-16T15:36:34.229Z,20.60
2024-02-16T15:39:05.194Z,18.00
2024-02-16T15:44:07.063Z,21.90
2024-02-16T15:46:37.929Z,15.40
2024-02-16T15:49:08.996Z,18.40
2024-02-16T15:51:39.854Z,20.60
2024-02-16T15:54:11.541Z,22.90
2024-02-16T15:56:42.554Z,21.40
2024-02-16T15:59:13.557Z,23.90
2024-02-16T16:04:13.921Z,20.00
2024-02-16T16:09:14.634Z,25.20
2024-02-16T16:11:46.262Z,30.50
2024-02-16T16:14:17.184Z,31.40
2024-02-16T16:19:17.265Z,25.20
2024-02-16T16:21:48.198Z,30.10
2024-02-16T16:26:48.679Z,24.30
2024-02-16T16:29:19.419Z,26.40
2024-02-16T16:31:51.255Z,26.30
2024-02-16T16:34:22.238Z,27.30
2024-02-16T16:39:22.547Z,30.20
2024-02-16T16:44:26.289Z,30.50
2024-02-16T16:46:57.164Z,29.80
2024-02-16T16:49:28.088Z,33.20
2024-02-16T16:54:28.413Z,37.40
2024-02-16T16:56:59.346Z,29.70
2024-02-16T17:01:59.605Z,27.90
2024-02-16T17:04:30.563Z,32.30
2024-02-16T17:09:30.815Z,34.90
2024-02-16T17:14:31.496Z,29.20
2024-02-16T17:17:02.378Z,29.50
2024-02-16T17:22:03.926Z,30.00
2024-02-16T17:24:34.941Z,29.00
2024-02-16T17:27:07.016Z,24.70
2024-02-16T17:29:39.485Z,24.80
2024-02-16T17:32:10.798Z,24.70
2024-02-16T17:34:41.633Z,22.60
2024-02-16T17:37:12.558Z,19.40
2024-02-16T17:42:15.564Z,18.10
2024-02-16T17:44:46.551Z,18.60
2024-02-16T17:49:51.010Z,18.30
2024-02-16T17:52:22.194Z,18.80
2024-02-16T17:54:53.036Z,17.90
2024-02-16T17:57:31.354Z,16.00
2024-02-16T18:02:39.896Z,21.00
2024-02-16T18:07:43.267Z,22.20
2024-02-16T18:10:14.137Z,16.80
2024-02-16T18:12:45.453Z,20.40
2024-02-16T18:15:16.471Z,17.80
2024-02-16T18:20:16.659Z,20.80
2024-02-16T18:25:17.458Z,19.40
2024-02-16T18:30:19.377Z,24.20
2024-02-16T18:32:52.502Z,23.30
2024-02-16T18:37:53.111Z,19.20
2024-02-16T18:40:24.026Z,23.10
2024-02-16T18:42:55.875Z,29.00
2024-02-16T18:45:26.877Z,22.80
2024-02-16T18:50:27.300Z,20.30
2024-02-16T18:52:58.193Z,17.40
2024-02-16T18:57:58.553Z,24.40
2024-02-16T19:00:29.536Z,22.70
2024-02-16T19:03:00.888Z,22.30
2024-02-16T19:05:32.575Z,21.60
2024-02-16T19:10:32.873Z,21.40
2024-02-16T19:13:03.847Z,22.70
2024-02-16T19:15:34.839Z,23.20
2024-02-16T19:18:08.062Z,25.90
2024-02-16T19:20:48.093Z,19.90
2024-02-16T19:23:19.150Z,16.10
2024-02-16T19:25:50.068Z,16.90
2024-02-16T19:28:21.367Z,17.80
2024-02-16T19:30:52.528Z,19.40
2024-02-16T19:33:23.593Z,15.40
2024-02-16T19:38:24.135Z,16.60
2024-02-16T19:40:55.768Z,17.30
2024-02-16T19:43:28.008Z,15.60
2024-02-16T19:46:00.183Z,14.80
2024-02-16T19:48:31.397Z,16.50
2024-02-16T19:51:02.537Z,15.70
2024-02-16T19:56:03.011Z,15.80
2024-02-16T20:01:03.367Z,19.50
2024-02-16T20:03:34.596Z,16.70
2024-02-16T20:06:19.314Z,16.90
2024-02-16T20:08:51.304Z,18.20
2024-02-16T20:11:22.408Z,16.60
2024-02-16T20:16:28.621Z,13.80
2024-02-16T20:19:00.012Z,17.50
2024-02-16T20:21:33.873Z,15.80
2024-02-16T20:24:05.580Z,17.00
2024-02-16T20:26:36.781Z,18.70
2024-02-16T20:29:07.731Z,17.90
2024-02-16T20:31:38.638Z,16.30
2024-02-16T20:34:09.758Z,17.80
2024-02-16T20:36:40.873Z,18.00
2024-02-16T20:39:11.849Z,18.30
2024-02-16T20:41:42.917Z,18.40
2024-02-16T20:46:43.159Z,16.10
2024-02-16T20:51:43.606Z,16.60
2024-02-16T20:56:44.931Z,19.00
2024-02-16T20:59:16.175Z,22.00
2024-02-16T21:01:47.053Z,21.10
2024-02-16T21:06:53.627Z,21.40
2024-02-16T21:09:24.631Z,25.10
2024-02-16T21:14:26.618Z,18.70
2024-02-16T21:16:57.860Z,17.40
2024-02-16T21:19:28.720Z,18.30
2024-02-16T21:21:59.658Z,15.50
2024-02-16T21:27:00.799Z,16.40
2024-02-16T21:29:32.220Z,16.50
2024-02-16T21:32:26.084Z,15.50
2024-02-16T21:34:54.703Z,18.30
2024-02-16T21:37:25.637Z,19.00
2024-02-16T21:39:56.592Z,18.00
2024-02-16T21:44:56.946Z,17.10
2024-02-16T21:49:57.561Z,17.00
2024-02-16T21:52:29.094Z,17.90
2024-02-16T21:55:00.396Z,18.40
2024-02-16T21:57:45.339Z,18.40
2024-02-16T22:00:20.465Z,16.90
2024-02-16T22:02:53.632Z,17.30
2024-02-16T22:05:24.709Z,17.90
2024-02-16T22:07:55.664Z,17.80
2024-02-16T22:10:26.638Z,21.00
2024-02-16T22:12:57.668Z,17.80
2024-02-16T22:15:28.633Z,18.80
2024-02-16T22:17:59.477Z,19.70
2024-02-16T22:22:59.818Z,20.20
2024-02-16T22:25:30.848Z,19.10
2024-02-16T22:30:31.278Z,17.50
2024-02-16T22:35:31.611Z,20.30
2024-02-16T22:38:02.367Z,15.90
2024-02-16T22:40:33.368Z,18.10
2024-02-16T22:45:33.692Z,22.00
2024-02-16T22:50:34.398Z,14.60
2024-02-16T22:55:42.245Z,18.00
2024-02-16T22:58:41.164Z,20.00
2024-02-16T23:03:01.376Z,19.70
2024-02-16T23:05:32.738Z,16.90
2024-02-16T23:08:04.240Z,17.60
2024-02-16T23:10:35.827Z,16.30
2024-02-16T23:13:07.403Z,16.00
2024-02-16T23:15:38.777Z,22.90
2024-02-16T23:18:09.996Z,18.30
2024-02-16T23:20:40.935Z,18.10
2024-02-16T23:23:12.505Z,18.00
2024-02-16T23:25:44.742Z,19.20
2024-02-16T23:28:16.589Z,20.80
2024-02-16T23:30:48.041Z,18.70
2024-02-16T23:35:49.513Z,18.90
2024-02-16T23:38:20.316Z,16.50
2024-02-16T23:40:51.600Z,18.10
2024-02-16T23:43:22.666Z,17.00
2024-02-16T23:48:23.709Z,17.80
2024-02-16T23:50:54.582Z,18.80
2024-02-16T23:53:25.384Z,20.40
2024-02-16T23:55:56.444Z,18.70
